sensor_id;sensor_type;location;lat;lon;timestamp;temperature;humidity
63966;DHT22;50151;52.030;5.350;2023-04-24T00:01:02;9.60;99.90
63966;DHT22;50151;52.030;5.350;2023-04-24T00:03:28;9.60;99.90
63966;DHT22;50151;52.030;5.350;2023-04-24T00:05:55;9.60;99.90
63966;DHT22;50151;52.030;5.350;2023-04-24T00:08:22;9.60;99.90
63966;DHT22;50151;52.030;5.350;2023-04-24T00:10:50;9.70;99.90
63966;DHT22;50151;52.030;5.350;2023-04-24T00:13:18;9.60;99.90
63966;DHT22;50151;52.030;5.350;2023-04-24T00:15:45;9.60;99.90
63966;DHT22;50151;52.030;5.350;2023-04-24T00:18:12;9.60;99.90
63966;DHT22;50151;52.030;5.350;2023-04-24T00:20:38;9.50;99.90
63966;DHT22;50151;52.030;5.350;2023-04-24T00:23:06;9.50;99.90
63966;DHT22;50151;52.030;5.350;2023-04-24T00:25:33;9.50;99.90
63966;DHT22;50151;52.030;5.350;2023-04-24T00:27:59;9.50;99.90
63966;DHT22;50151;52.030;5.350;2023-04-24T00:30:27;9.50;99.90
63966;DHT22;50151;52.030;5.350;2023-04-24T00:32:54;9.50;99.90
63966;DHT22;50151;52.030;5.350;2023-04-24T00:35:20;9.50;99.90
63966;DHT22;50151;52.030;5.350;2023-04-24T00:37:47;9.40;99.90
63966;DHT22;50151;52.030;5.350;2023-04-24T00:40:14;9.50;99.90
63966;DHT22;50151;52.030;5.350;2023-04-24T00:42:40;9.50;99.90
63966;DHT22;50151;52.030;5.350;2023-04-24T00:45:08;9.40;99.90
63966;DHT22;50151;52.030;5.350;2023-04-24T00:47:35;9.40;99.90
63966;DHT22;50151;52.030;5.350;2023-04-24T00:50:06;9.50;99.90
63966;DHT22;50151;52.030;5.350;2023-04-24T00:52:33;9.50;99.90
63966;DHT22;50151;52.030;5.350;2023-04-24T00:55:00;9.50;99.90
63966;DHT22;50151;52.030;5.350;2023-04-24T00:57:27;9.50;99.90
63966;DHT22;50151;52.030;5.350;2023-04-24T00:59:54;9.50;99.90
63966;DHT22;50151;52.030;5.350;2023-04-24T01:02:21;9.50;99.90
63966;DHT22;50151;52.030;5.350;2023-04-24T01:04:52;9.50;99.90
63966;DHT22;50151;52.030;5.350;2023-04-24T01:07:20;9.60;99.90
63966;DHT22;50151;52.030;5.350;2023-04-24T01:09:48;9.50;99.90
63966;DHT22;50151;52.030;5.350;2023-04-24T01:12:15;9.60;99.90
63966;DHT22;50151;52.030;5.350;2023-04-24T01:14:42;9.60;99.90
63966;DHT22;50151;52.030;5.350;2023-04-24T01:17:09;9.50;99.90
63966;DHT22;50151;52.030;5.350;2023-04-24T01:19:36;9.50;99.90
63966;DHT22;50151;52.030;5.350;2023-04-24T01:22:09;9.60;99.90
63966;DHT22;50151;52.030;5.350;2023-04-24T01:24:37;9.50;99.90
63966;DHT22;50151;52.030;5.350;2023-04-24T01:27:04;9.50;99.90
63966;DHT22;50151;52.030;5.350;2023-04-24T01:29:30;9.50;99.90
63966;DHT22;50151;52.030;5.350;2023-04-24T01:31:57;9.50;99.90
63966;DHT22;50151;52.030;5.350;2023-04-24T01:34:25;9.50;99.90
63966;DHT22;50151;52.030;5.350;2023-04-24T01:36:52;9.50;99.90
63966;DHT22;50151;52.030;5.350;2023-04-24T01:39:19;9.50;99.90
63966;DHT22;50151;52.030;5.350;2023-04-24T01:41:47;9.50;99.90
63966;DHT22;50151;52.030;5.350;2023-04-24T01:44:14;9.50;99.90
63966;DHT22;50151;52.030;5.350;2023-04-24T01:46:41;9.50;99.90
63966;DHT22;50151;52.030;5.350;2023-04-24T01:49:08;9.50;99.90
63966;DHT22;50151;52.030;5.350;2023-04-24T01:51:34;9.50;99.90
63966;DHT22;50151;52.030;5.350;2023-04-24T01:54:01;9.50;99.90
63966;DHT22;50151;52.030;5.350;2023-04-24T01:56:33;9.50;99.90
63966;DHT22;50151;52.030;5.350;2023-04-24T01:59:00;9.50;99.90
63966;DHT22;50151;52.030;5.350;2023-04-24T02:01:36;9.50;99.90
63966;DHT22;50151;52.030;5.350;2023-04-24T02:04:07;9.50;99.90
63966;DHT22;50151;52.030;5.350;2023-04-24T02:06:34;9.40;99.90
63966;DHT22;50151;52.030;5.350;2023-04-24T02:09:02;9.50;99.90
63966;DHT22;50151;52.030;5.350;2023-04-24T02:11:29;9.50;99.90
63966;DHT22;50151;52.030;5.350;2023-04-24T02:13:56;9.50;99.90
63966;DHT22;50151;52.030;5.350;2023-04-24T02:16:22;9.50;99.90
63966;DHT22;50151;52.030;5.350;2023-04-24T02:18:49;9.50;99.90
63966;DHT22;50151;52.030;5.350;2023-04-24T02:21:16;9.40;99.90
63966;DHT22;50151;52.030;5.350;2023-04-24T02:23:43;9.40;99.90
63966;DHT22;50151;52.030;5.350;2023-04-24T02:26:09;9.40;99.90
63966;DHT22;50151;52.030;5.350;2023-04-24T02:28:36;9.40;99.90
63966;DHT22;50151;52.030;5.350;2023-04-24T02:31:03;9.40;99.90
63966;DHT22;50151;52.030;5.350;2023-04-24T02:33:29;9.40;99.90
63966;DHT22;50151;52.030;5.350;2023-04-24T02:35:56;9.40;99.90
63966;DHT22;50151;52.030;5.350;2023-04-24T02:38:23;9.40;99.90
63966;DHT22;50151;52.030;5.350;2023-04-24T02:40:49;9.40;99.90
63966;DHT22;50151;52.030;5.350;2023-04-24T02:43:16;9.40;99.90
63966;DHT22;50151;52.030;5.350;2023-04-24T02:45:43;9.40;99.90
63966;DHT22;50151;52.030;5.350;2023-04-24T02:48:10;9.40;99.90
63966;DHT22;50151;52.030;5.350;2023-04-24T02:50:36;9.40;99.90
63966;DHT22;50151;52.030;5.350;2023-04-24T02:53:03;9.40;99.90
63966;DHT22;50151;52.030;5.350;2023-04-24T02:55:30;9.50;99.90
63966;DHT22;50151;52.030;5.350;2023-04-24T02:57:57;9.50;99.90
63966;DHT22;50151;52.030;5.350;2023-04-24T03:00:23;9.50;99.90
63966;DHT22;50151;52.030;5.350;2023-04-24T03:02:50;9.50;99.90
63966;DHT22;50151;52.030;5.350;2023-04-24T03:05:17;9.40;99.90
63966;DHT22;50151;52.030;5.350;2023-04-24T03:07:44;9.40;99.90
63966;DHT22;50151;52.030;5.350;2023-04-24T03:10:12;9.30;99.90
63966;DHT22;50151;52.030;5.350;2023-04-24T03:12:38;9.40;99.90
63966;DHT22;50151;52.030;5.350;2023-04-24T03:15:05;9.40;99.90
63966;DHT22;50151;52.030;5.350;2023-04-24T03:17:32;9.40;99.90
63966;DHT22;50151;52.030;5.350;2023-04-24T03:19:59;9.30;99.90
63966;DHT22;50151;52.030;5.350;2023-04-24T03:22:26;9.30;99.90
63966;DHT22;50151;52.030;5.350;2023-04-24T03:24:52;9.30;99.90
63966;DHT22;50151;52.030;5.350;2023-04-24T03:27:19;9.20;99.90
63966;DHT22;50151;52.030;5.350;2023-04-24T03:29:46;9.30;99.90
63966;DHT22;50151;52.030;5.350;2023-04-24T03:32:12;9.30;99.90
63966;DHT22;50151;52.030;5.350;2023-04-24T03:34:39;9.20;99.90
63966;DHT22;50151;52.030;5.350;2023-04-24T03:37:05;9.30;99.90
63966;DHT22;50151;52.030;5.350;2023-04-24T03:39:32;9.20;99.90
63966;DHT22;50151;52.030;5.350;2023-04-24T03:41:59;9.20;99.90
63966;DHT22;50151;52.030;5.350;2023-04-24T03:44:26;9.20;99.90
63966;DHT22;50151;52.030;5.350;2023-04-24T03:46:53;9.20;99.90
63966;DHT22;50151;52.030;5.350;2023-04-24T03:49:20;9.20;99.90
63966;DHT22;50151;52.030;5.350;2023-04-24T03:51:47;9.20;99.90
63966;DHT22;50151;52.030;5.350;2023-04-24T03:54:13;9.30;99.90
63966;DHT22;50151;52.030;5.350;2023-04-24T03:56:40;9.30;99.90
63966;DHT22;50151;52.030;5.350;2023-04-24T03:59:07;9.30;99.90
63966;DHT22;50151;52.030;5.350;2023-04-24T04:01:33;9.30;99.90
63966;DHT22;50151;52.030;5.350;2023-04-24T04:04:03;9.30;99.90
63966;DHT22;50151;52.030;5.350;2023-04-24T04:06:31;9.30;99.90
63966;DHT22;50151;52.030;5.350;2023-04-24T04:08:58;9.40;99.90
63966;DHT22;50151;52.030;5.350;2023-04-24T04:11:25;9.30;99.90
63966;DHT22;50151;52.030;5.350;2023-04-24T04:13:52;9.30;99.90
63966;DHT22;50151;52.030;5.350;2023-04-24T04:16:19;9.30;99.90
63966;DHT22;50151;52.030;5.350;2023-04-24T04:18:45;9.30;99.90
63966;DHT22;50151;52.030;5.350;2023-04-24T04:21:12;9.30;99.90
63966;DHT22;50151;52.030;5.350;2023-04-24T04:23:39;9.30;99.90
63966;DHT22;50151;52.030;5.350;2023-04-24T04:26:06;9.30;99.90
63966;DHT22;50151;52.030;5.350;2023-04-24T04:28:34;9.30;99.90
63966;DHT22;50151;52.030;5.350;2023-04-24T04:31:01;9.30;99.90
63966;DHT22;50151;52.030;5.350;2023-04-24T04:33:28;9.30;99.90
63966;DHT22;50151;52.030;5.350;2023-04-24T04:35:55;9.40;99.90
63966;DHT22;50151;52.030;5.350;2023-04-24T04:38:25;9.40;99.90
63966;DHT22;50151;52.030;5.350;2023-04-24T04:40:53;9.40;99.90
63966;DHT22;50151;52.030;5.350;2023-04-24T04:43:19;9.40;99.90
63966;DHT22;50151;52.030;5.350;2023-04-24T04:45:46;9.40;99.90
63966;DHT22;50151;52.030;5.350;2023-04-24T04:48:14;9.50;99.90
63966;DHT22;50151;52.030;5.350;2023-04-24T04:50:44;9.20;99.90
63966;DHT22;50151;52.030;5.350;2023-04-24T04:53:11;9.30;99.90
63966;DHT22;50151;52.030;5.350;2023-04-24T04:55:38;9.30;99.90
63966;DHT22;50151;52.030;5.350;2023-04-24T04:58:05;9.40;99.90
63966;DHT22;50151;52.030;5.350;2023-04-24T05:00:32;9.40;99.90
63966;DHT22;50151;52.030;5.350;2023-04-24T05:03:02;9.30;99.90
63966;DHT22;50151;52.030;5.350;2023-04-24T05:05:46;9.40;99.90
63966;DHT22;50151;52.030;5.350;2023-04-24T05:08:13;9.40;99.90
63966;DHT22;50151;52.030;5.350;2023-04-24T05:10:52;9.40;99.90
63966;DHT22;50151;52.030;5.350;2023-04-24T05:13:19;9.40;99.90
63966;DHT22;50151;52.030;5.350;2023-04-24T05:15:57;9.40;99.90
63966;DHT22;50151;52.030;5.350;2023-04-24T05:18:24;9.40;99.90
63966;DHT22;50151;52.030;5.350;2023-04-24T05:20:51;9.40;99.90
63966;DHT22;50151;52.030;5.350;2023-04-24T05:23:17;9.40;99.90
63966;DHT22;50151;52.030;5.350;2023-04-24T05:25:44;9.50;99.90
63966;DHT22;50151;52.030;5.350;2023-04-24T05:28:12;9.50;99.90
63966;DHT22;50151;52.030;5.350;2023-04-24T05:30:39;9.50;99.90
63966;DHT22;50151;52.030;5.350;2023-04-24T05:33:06;9.40;99.90
63966;DHT22;50151;52.030;5.350;2023-04-24T05:35:32;9.40;99.90
63966;DHT22;50151;52.030;5.350;2023-04-24T05:37:59;9.50;99.90
63966;DHT22;50151;52.030;5.350;2023-04-24T05:40:26;9.50;99.90
63966;DHT22;50151;52.030;5.350;2023-04-24T05:42:52;9.40;99.90
63966;DHT22;50151;52.030;5.350;2023-04-24T05:45:19;9.50;99.90
63966;DHT22;50151;52.030;5.350;2023-04-24T05:47:45;9.50;99.90
63966;DHT22;50151;52.030;5.350;2023-04-24T05:50:13;9.50;99.90
63966;DHT22;50151;52.030;5.350;2023-04-24T05:52:40;9.40;99.90
63966;DHT22;50151;52.030;5.350;2023-04-24T05:55:06;9.40;99.90
63966;DHT22;50151;52.030;5.350;2023-04-24T05:57:34;9.30;99.90
63966;DHT22;50151;52.030;5.350;2023-04-24T06:00:00;9.30;99.90
63966;DHT22;50151;52.030;5.350;2023-04-24T06:02:27;9.20;99.90
63966;DHT22;50151;52.030;5.350;2023-04-24T06:04:55;9.20;99.90
63966;DHT22;50151;52.030;5.350;2023-04-24T06:07:24;9.10;99.90
63966;DHT22;50151;52.030;5.350;2023-04-24T06:09:52;9.10;99.90
63966;DHT22;50151;52.030;5.350;2023-04-24T06:12:19;9.00;99.90
63966;DHT22;50151;52.030;5.350;2023-04-24T06:14:45;9.10;99.90
63966;DHT22;50151;52.030;5.350;2023-04-24T06:17:12;9.10;99.90
63966;DHT22;50151;52.030;5.350;2023-04-24T06:19:39;9.10;99.90
63966;DHT22;50151;52.030;5.350;2023-04-24T06:22:06;9.10;99.90
63966;DHT22;50151;52.030;5.350;2023-04-24T06:24:35;9.10;99.90
63966;DHT22;50151;52.030;5.350;2023-04-24T06:27:02;9.10;99.90
63966;DHT22;50151;52.030;5.350;2023-04-24T06:29:29;9.10;99.90
63966;DHT22;50151;52.030;5.350;2023-04-24T06:31:55;9.00;99.90
63966;DHT22;50151;52.030;5.350;2023-04-24T06:34:22;9.00;99.90
63966;DHT22;50151;52.030;5.350;2023-04-24T06:36:49;9.00;99.90
63966;DHT22;50151;52.030;5.350;2023-04-24T06:39:15;8.90;99.90
63966;DHT22;50151;52.030;5.350;2023-04-24T06:41:42;9.00;99.90
63966;DHT22;50151;52.030;5.350;2023-04-24T06:44:09;9.00;99.90
63966;DHT22;50151;52.030;5.350;2023-04-24T06:46:35;9.00;99.90
63966;DHT22;50151;52.030;5.350;2023-04-24T06:49:04;9.00;99.90
63966;DHT22;50151;52.030;5.350;2023-04-24T06:51:31;8.90;99.90
63966;DHT22;50151;52.030;5.350;2023-04-24T06:53:59;8.90;99.90
63966;DHT22;50151;52.030;5.350;2023-04-24T06:56:26;8.90;99.90
63966;DHT22;50151;52.030;5.350;2023-04-24T06:58:53;8.90;99.90
63966;DHT22;50151;52.030;5.350;2023-04-24T07:01:19;8.90;99.90
63966;DHT22;50151;52.030;5.350;2023-04-24T07:03:46;8.90;99.90
63966;DHT22;50151;52.030;5.350;2023-04-24T07:06:13;8.80;99.90
63966;DHT22;50151;52.030;5.350;2023-04-24T07:08:40;8.80;99.90
63966;DHT22;50151;52.030;5.350;2023-04-24T07:11:08;8.80;99.90
63966;DHT22;50151;52.030;5.350;2023-04-24T07:13:35;8.70;99.90
63966;DHT22;50151;52.030;5.350;2023-04-24T07:16:01;8.70;99.90
63966;DHT22;50151;52.030;5.350;2023-04-24T07:18:28;8.70;99.90
63966;DHT22;50151;52.030;5.350;2023-04-24T07:20:55;8.70;99.90
63966;DHT22;50151;52.030;5.350;2023-04-24T07:23:22;8.60;99.90
63966;DHT22;50151;52.030;5.350;2023-04-24T07:25:49;8.60;99.90
63966;DHT22;50151;52.030;5.350;2023-04-24T07:28:16;8.80;99.90
63966;DHT22;50151;52.030;5.350;2023-04-24T07:30:44;8.70;99.90
63966;DHT22;50151;52.030;5.350;2023-04-24T07:33:10;8.70;99.90
63966;DHT22;50151;52.030;5.350;2023-04-24T07:35:39;8.70;99.90
63966;DHT22;50151;52.030;5.350;2023-04-24T07:38:06;8.70;99.90
63966;DHT22;50151;52.030;5.350;2023-04-24T07:40:33;8.70;99.90
63966;DHT22;50151;52.030;5.350;2023-04-24T07:42:59;8.70;99.90
63966;DHT22;50151;52.030;5.350;2023-04-24T07:45:26;8.70;99.90
63966;DHT22;50151;52.030;5.350;2023-04-24T07:47:54;8.70;99.90
63966;DHT22;50151;52.030;5.350;2023-04-24T07:50:21;8.70;99.90
63966;DHT22;50151;52.030;5.350;2023-04-24T07:52:48;8.70;99.90
63966;DHT22;50151;52.030;5.350;2023-04-24T07:55:15;8.70;99.90
63966;DHT22;50151;52.030;5.350;2023-04-24T07:57:42;8.70;99.90
63966;DHT22;50151;52.030;5.350;2023-04-24T08:00:09;8.80;99.90
63966;DHT22;50151;52.030;5.350;2023-04-24T08:02:36;8.70;99.90
63966;DHT22;50151;52.030;5.350;2023-04-24T08:05:03;8.80;99.90
63966;DHT22;50151;52.030;5.350;2023-04-24T08:07:30;8.80;99.90
63966;DHT22;50151;52.030;5.350;2023-04-24T08:09:57;8.70;99.90
63966;DHT22;50151;52.030;5.350;2023-04-24T08:12:25;8.70;99.90
63966;DHT22;50151;52.030;5.350;2023-04-24T08:14:52;8.80;99.90
63966;DHT22;50151;52.030;5.350;2023-04-24T08:17:19;8.70;99.90
63966;DHT22;50151;52.030;5.350;2023-04-24T08:19:45;8.70;99.90
63966;DHT22;50151;52.030;5.350;2023-04-24T08:22:15;8.70;99.90
63966;DHT22;50151;52.030;5.350;2023-04-24T08:24:41;8.70;99.90
63966;DHT22;50151;52.030;5.350;2023-04-24T08:27:09;8.70;99.90
63966;DHT22;50151;52.030;5.350;2023-04-24T08:29:36;8.80;99.90
63966;DHT22;50151;52.030;5.350;2023-04-24T08:32:03;8.70;99.90
63966;DHT22;50151;52.030;5.350;2023-04-24T08:34:30;8.80;99.90
63966;DHT22;50151;52.030;5.350;2023-04-24T08:36:56;8.80;99.90
63966;DHT22;50151;52.030;5.350;2023-04-24T08:39:23;8.70;99.90
63966;DHT22;50151;52.030;5.350;2023-04-24T08:41:50;8.70;99.90
63966;DHT22;50151;52.030;5.350;2023-04-24T08:44:17;8.70;99.90
63966;DHT22;50151;52.030;5.350;2023-04-24T08:46:48;8.70;99.90
63966;DHT22;50151;52.030;5.350;2023-04-24T08:49:17;8.70;99.90
63966;DHT22;50151;52.030;5.350;2023-04-24T08:51:44;8.80;99.90
63966;DHT22;50151;52.030;5.350;2023-04-24T08:54:13;8.80;99.90
63966;DHT22;50151;52.030;5.350;2023-04-24T08:56:43;8.80;99.90
63966;DHT22;50151;52.030;5.350;2023-04-24T08:59:11;8.90;99.90
63966;DHT22;50151;52.030;5.350;2023-04-24T09:01:40;8.90;99.90
63966;DHT22;50151;52.030;5.350;2023-04-24T09:04:09;8.90;99.90
63966;DHT22;50151;52.030;5.350;2023-04-24T09:06:40;8.90;99.90
63966;DHT22;50151;52.030;5.350;2023-04-24T09:09:07;8.90;99.90
63966;DHT22;50151;52.030;5.350;2023-04-24T09:11:34;8.90;99.90
63966;DHT22;50151;52.030;5.350;2023-04-24T09:14:01;8.80;99.90
63966;DHT22;50151;52.030;5.350;2023-04-24T09:16:28;8.80;99.90
63966;DHT22;50151;52.030;5.350;2023-04-24T09:18:56;8.80;99.90
63966;DHT22;50151;52.030;5.350;2023-04-24T09:21:23;8.90;99.90
63966;DHT22;50151;52.030;5.350;2023-04-24T09:24:01;8.90;99.90
63966;DHT22;50151;52.030;5.350;2023-04-24T09:26:34;8.80;99.90
63966;DHT22;50151;52.030;5.350;2023-04-24T09:29:01;8.80;99.90
63966;DHT22;50151;52.030;5.350;2023-04-24T09:31:29;8.80;99.90
63966;DHT22;50151;52.030;5.350;2023-04-24T09:34:01;8.90;99.90
63966;DHT22;50151;52.030;5.350;2023-04-24T09:36:35;9.10;99.90
63966;DHT22;50151;52.030;5.350;2023-04-24T09:39:06;9.10;99.90
63966;DHT22;50151;52.030;5.350;2023-04-24T09:41:35;9.30;99.90
63966;DHT22;50151;52.030;5.350;2023-04-24T09:44:12;9.40;99.90
63966;DHT22;50151;52.030;5.350;2023-04-24T09:46:39;9.40;99.90
63966;DHT22;50151;52.030;5.350;2023-04-24T09:49:13;9.50;99.90
63966;DHT22;50151;52.030;5.350;2023-04-24T09:51:41;9.50;99.90
63966;DHT22;50151;52.030;5.350;2023-04-24T09:54:20;9.50;99.90
63966;DHT22;50151;52.030;5.350;2023-04-24T09:56:51;9.50;99.90
63966;DHT22;50151;52.030;5.350;2023-04-24T09:59:19;9.50;99.90
63966;DHT22;50151;52.030;5.350;2023-04-24T10:01:46;9.50;99.90
63966;DHT22;50151;52.030;5.350;2023-04-24T10:04:17;9.70;99.90
63966;DHT22;50151;52.030;5.350;2023-04-24T10:06:49;9.70;99.90
63966;DHT22;50151;52.030;5.350;2023-04-24T10:09:26;9.80;99.90
63966;DHT22;50151;52.030;5.350;2023-04-24T10:11:54;9.70;99.90
63966;DHT22;50151;52.030;5.350;2023-04-24T10:14:24;9.80;99.90
63966;DHT22;50151;52.030;5.350;2023-04-24T10:16:55;9.70;99.90
63966;DHT22;50151;52.030;5.350;2023-04-24T10:19:26;9.80;99.90
63966;DHT22;50151;52.030;5.350;2023-04-24T10:21:53;9.60;99.90
63966;DHT22;50151;52.030;5.350;2023-04-24T10:24:22;9.50;99.90
63966;DHT22;50151;52.030;5.350;2023-04-24T10:26:48;9.40;99.90
63966;DHT22;50151;52.030;5.350;2023-04-24T10:29:17;9.50;99.90
63966;DHT22;50151;52.030;5.350;2023-04-24T10:31:44;9.20;99.90
63966;DHT22;50151;52.030;5.350;2023-04-24T10:34:16;9.20;99.90
63966;DHT22;50151;52.030;5.350;2023-04-24T10:36:47;9.30;99.90
63966;DHT22;50151;52.030;5.350;2023-04-24T10:39:16;9.60;99.90
63966;DHT22;50151;52.030;5.350;2023-04-24T10:41:43;9.60;99.90
63966;DHT22;50151;52.030;5.350;2023-04-24T10:44:13;9.70;99.90
63966;DHT22;50151;52.030;5.350;2023-04-24T10:46:46;9.60;99.90
63966;DHT22;50151;52.030;5.350;2023-04-24T10:49:14;9.60;99.90
63966;DHT22;50151;52.030;5.350;2023-04-24T10:54:33;9.60;99.90
63966;DHT22;50151;52.030;5.350;2023-04-24T10:59:51;9.70;99.90
63966;DHT22;50151;52.030;5.350;2023-04-24T11:02:18;9.80;99.90
63966;DHT22;50151;52.030;5.350;2023-04-24T11:04:45;10.00;99.90
63966;DHT22;50151;52.030;5.350;2023-04-24T11:07:13;10.20;99.90
63966;DHT22;50151;52.030;5.350;2023-04-24T11:09:42;10.40;99.90
63966;DHT22;50151;52.030;5.350;2023-04-24T11:12:11;10.60;99.90
63966;DHT22;50151;52.030;5.350;2023-04-24T11:17:34;10.60;99.90
63966;DHT22;50151;52.030;5.350;2023-04-24T11:20:09;10.40;99.90
63966;DHT22;50151;52.030;5.350;2023-04-24T11:22:53;10.20;99.90
63966;DHT22;50151;52.030;5.350;2023-04-24T11:25:22;9.90;99.90
63966;DHT22;50151;52.030;5.350;2023-04-24T11:28:03;9.90;99.90
63966;DHT22;50151;52.030;5.350;2023-04-24T11:30:31;9.80;99.90
63966;DHT22;50151;52.030;5.350;2023-04-24T11:33:02;9.80;99.90
63966;DHT22;50151;52.030;5.350;2023-04-24T11:35:30;9.80;99.90
63966;DHT22;50151;52.030;5.350;2023-04-24T11:38:02;9.70;99.90
63966;DHT22;50151;52.030;5.350;2023-04-24T11:40:49;9.60;99.90
63966;DHT22;50151;52.030;5.350;2023-04-24T11:43:16;9.50;99.90
63966;DHT22;50151;52.030;5.350;2023-04-24T11:45:48;9.50;99.90
63966;DHT22;50151;52.030;5.350;2023-04-24T11:48:19;9.60;99.90
63966;DHT22;50151;52.030;5.350;2023-04-24T11:50:49;9.80;99.90
63966;DHT22;50151;52.030;5.350;2023-04-24T11:53:19;9.90;99.90
63966;DHT22;50151;52.030;5.350;2023-04-24T11:55:47;10.40;99.90
63966;DHT22;50151;52.030;5.350;2023-04-24T11:58:14;10.40;99.90
63966;DHT22;50151;52.030;5.350;2023-04-24T12:00:41;10.40;99.90
63966;DHT22;50151;52.030;5.350;2023-04-24T12:03:12;10.40;99.90
63966;DHT22;50151;52.030;5.350;2023-04-24T12:05:40;10.50;99.90
63966;DHT22;50151;52.030;5.350;2023-04-24T12:08:08;10.40;99.90
63966;DHT22;50151;52.030;5.350;2023-04-24T12:10:35;10.40;99.90
63966;DHT22;50151;52.030;5.350;2023-04-24T12:13:02;10.40;99.90
63966;DHT22;50151;52.030;5.350;2023-04-24T12:15:29;10.20;99.90
63966;DHT22;50151;52.030;5.350;2023-04-24T12:17:56;10.20;99.90
63966;DHT22;50151;52.030;5.350;2023-04-24T12:20:29;10.20;99.90
63966;DHT22;50151;52.030;5.350;2023-04-24T12:22:58;10.30;99.90
63966;DHT22;50151;52.030;5.350;2023-04-24T12:25:27;10.40;99.90
63966;DHT22;50151;52.030;5.350;2023-04-24T12:28:08;10.30;99.90
63966;DHT22;50151;52.030;5.350;2023-04-24T12:30:45;10.60;99.90
63966;DHT22;50151;52.030;5.350;2023-04-24T12:33:21;10.70;99.90
63966;DHT22;50151;52.030;5.350;2023-04-24T12:35:51;10.60;99.90
63966;DHT22;50151;52.030;5.350;2023-04-24T12:38:23;10.70;99.90
63966;DHT22;50151;52.030;5.350;2023-04-24T12:41:05;10.50;99.90
63966;DHT22;50151;52.030;5.350;2023-04-24T12:43:33;10.50;99.90
63966;DHT22;50151;52.030;5.350;2023-04-24T12:45:59;10.30;99.90
63966;DHT22;50151;52.030;5.350;2023-04-24T12:48:27;10.40;99.90
63966;DHT22;50151;52.030;5.350;2023-04-24T12:50:56;10.40;99.90
63966;DHT22;50151;52.030;5.350;2023-04-24T12:53:23;10.50;99.90
63966;DHT22;50151;52.030;5.350;2023-04-24T12:55:49;10.50;99.90
63966;DHT22;50151;52.030;5.350;2023-04-24T12:58:20;10.50;99.90
63966;DHT22;50151;52.030;5.350;2023-04-24T13:00:47;10.60;99.90
63966;DHT22;50151;52.030;5.350;2023-04-24T13:03:14;10.80;99.90
63966;DHT22;50151;52.030;5.350;2023-04-24T13:05:42;10.90;99.90
63966;DHT22;50151;52.030;5.350;2023-04-24T13:08:09;10.60;99.90
63966;DHT22;50151;52.030;5.350;2023-04-24T13:10:37;10.70;99.90
63966;DHT22;50151;52.030;5.350;2023-04-24T13:13:03;10.50;99.90
63966;DHT22;50151;52.030;5.350;2023-04-24T13:15:30;10.50;99.90
63966;DHT22;50151;52.030;5.350;2023-04-24T13:17:56;10.40;99.90
63966;DHT22;50151;52.030;5.350;2023-04-24T13:20:23;11.00;99.40
63966;DHT22;50151;52.030;5.350;2023-04-24T13:22:50;11.30;95.90
63966;DHT22;50151;52.030;5.350;2023-04-24T13:25:17;11.80;89.60
63966;DHT22;50151;52.030;5.350;2023-04-24T13:27:44;12.10;85.80
63966;DHT22;50151;52.030;5.350;2023-04-24T13:30:11;12.20;78.00
63966;DHT22;50151;52.030;5.350;2023-04-24T13:32:38;12.60;83.00
63966;DHT22;50151;52.030;5.350;2023-04-24T13:35:05;12.40;87.60
63966;DHT22;50151;52.030;5.350;2023-04-24T13:37:32;12.00;88.70
63966;DHT22;50151;52.030;5.350;2023-04-24T13:39:58;11.60;89.50
63966;DHT22;50151;52.030;5.350;2023-04-24T13:42:25;11.20;92.00
63966;DHT22;50151;52.030;5.350;2023-04-24T13:44:52;11.50;90.70
63966;DHT22;50151;52.030;5.350;2023-04-24T13:47:20;11.50;74.90
63966;DHT22;50151;52.030;5.350;2023-04-24T13:49:47;11.50;67.80
63966;DHT22;50151;52.030;5.350;2023-04-24T13:52:14;12.20;69.30
63966;DHT22;50151;52.030;5.350;2023-04-24T13:54:42;12.80;70.70
63966;DHT22;50151;52.030;5.350;2023-04-24T13:57:08;12.10;72.20
63966;DHT22;50151;52.030;5.350;2023-04-24T13:59:35;12.70;70.60
63966;DHT22;50151;52.030;5.350;2023-04-24T14:02:02;12.60;66.90
63966;DHT22;50151;52.030;5.350;2023-04-24T14:04:29;12.30;71.30
63966;DHT22;50151;52.030;5.350;2023-04-24T14:06:56;12.00;68.70
63966;DHT22;50151;52.030;5.350;2023-04-24T14:09:23;12.20;71.60
63966;DHT22;50151;52.030;5.350;2023-04-24T14:11:51;13.00;63.70
63966;DHT22;50151;52.030;5.350;2023-04-24T14:14:18;13.00;63.70
63966;DHT22;50151;52.030;5.350;2023-04-24T14:16:49;12.30;64.50
63966;DHT22;50151;52.030;5.350;2023-04-24T14:19:15;12.40;67.50
63966;DHT22;50151;52.030;5.350;2023-04-24T14:21:42;12.50;66.40
63966;DHT22;50151;52.030;5.350;2023-04-24T14:24:08;12.30;69.20
63966;DHT22;50151;52.030;5.350;2023-04-24T14:26:35;12.00;73.80
63966;DHT22;50151;52.030;5.350;2023-04-24T14:29:02;11.70;73.90
63966;DHT22;50151;52.030;5.350;2023-04-24T14:31:41;11.80;75.80
63966;DHT22;50151;52.030;5.350;2023-04-24T14:34:08;12.30;76.80
63966;DHT22;50151;52.030;5.350;2023-04-24T14:36:34;12.00;73.80
63966;DHT22;50151;52.030;5.350;2023-04-24T14:39:01;11.80;75.50
63966;DHT22;50151;52.030;5.350;2023-04-24T14:41:33;11.70;78.00
63966;DHT22;50151;52.030;5.350;2023-04-24T14:44:03;11.70;78.30
63966;DHT22;50151;52.030;5.350;2023-04-24T14:46:30;11.80;81.40
63966;DHT22;50151;52.030;5.350;2023-04-24T14:48:57;11.60;77.10
63966;DHT22;50151;52.030;5.350;2023-04-24T14:51:24;11.50;77.90
63966;DHT22;50151;52.030;5.350;2023-04-24T14:53:52;11.20;78.70
63966;DHT22;50151;52.030;5.350;2023-04-24T14:56:19;11.20;82.90
63966;DHT22;50151;52.030;5.350;2023-04-24T14:58:45;11.10;82.90
63966;DHT22;50151;52.030;5.350;2023-04-24T15:01:12;11.10;87.30
63966;DHT22;50151;52.030;5.350;2023-04-24T15:03:43;11.10;89.40
63966;DHT22;50151;52.030;5.350;2023-04-24T15:06:11;11.70;89.20
63966;DHT22;50151;52.030;5.350;2023-04-24T15:08:38;11.10;90.60
63966;DHT22;50151;52.030;5.350;2023-04-24T15:11:05;11.50;91.90
63966;DHT22;50151;52.030;5.350;2023-04-24T15:13:32;11.40;92.50
63966;DHT22;50151;52.030;5.350;2023-04-24T15:15:59;11.70;92.60
63966;DHT22;50151;52.030;5.350;2023-04-24T15:18:25;11.50;92.80
63966;DHT22;50151;52.030;5.350;2023-04-24T15:20:54;11.70;91.90
63966;DHT22;50151;52.030;5.350;2023-04-24T15:23:21;11.60;90.70
63966;DHT22;50151;52.030;5.350;2023-04-24T15:25:47;11.60;90.80
63966;DHT22;50151;52.030;5.350;2023-04-24T15:28:14;11.60;87.60
63966;DHT22;50151;52.030;5.350;2023-04-24T15:30:42;11.50;87.60
63966;DHT22;50151;52.030;5.350;2023-04-24T15:33:09;11.20;88.40
63966;DHT22;50151;52.030;5.350;2023-04-24T15:35:50;11.10;90.40
63966;DHT22;50151;52.030;5.350;2023-04-24T15:38:17;11.00;91.30
63966;DHT22;50151;52.030;5.350;2023-04-24T15:40:43;11.10;93.30
63966;DHT22;50151;52.030;5.350;2023-04-24T15:43:11;11.30;83.30
63966;DHT22;50151;52.030;5.350;2023-04-24T15:45:37;11.10;78.70
63966;DHT22;50151;52.030;5.350;2023-04-24T15:48:04;11.20;79.50
63966;DHT22;50151;52.030;5.350;2023-04-24T15:50:31;10.90;78.20
63966;DHT22;50151;52.030;5.350;2023-04-24T15:52:58;10.90;78.70
63966;DHT22;50151;52.030;5.350;2023-04-24T15:55:24;11.10;79.10